createdAt,value
2017-11-17T00:00:48.290Z,1022.57
2017-11-17T00:01:57.123Z,1022.58
2017-11-17T00:03:05.952Z,1022.61
2017-11-17T00:04:14.830Z,1022.62
2017-11-17T00:05:23.662Z,1022.64
2017-11-17T00:06:32.490Z,1022.69
2017-11-17T00:07:41.319Z,1022.7
2017-11-17T00:08:50.148Z,1022.69
2017-11-17T00:09:59.279Z,1022.68
2017-11-17T00:11:08.108Z,1022.66
2017-11-17T00:12:16.988Z,1022.7
2017-11-17T00:13:25.816Z,1022.69
2017-11-17T00:14:34.647Z,1022.72
2017-11-17T00:15:43.527Z,1022.7
2017-11-17T00:16:52.358Z,1022.72
2017-11-17T00:18:01.189Z,1022.73
2017-11-17T00:19:10.299Z,1022.74
2017-11-17T00:20:19.125Z,1022.73
2017-11-17T00:21:27.952Z,1022.78
2017-11-17T00:22:36.783Z,1022.73
2017-11-17T00:23:45.610Z,1022.76
2017-11-17T00:24:54.439Z,1022.78
2017-11-17T00:26:03.270Z,1022.8
2017-11-17T00:27:12.150Z,1022.83
2017-11-17T00:28:20.981Z,1022.85
2017-11-17T00:29:29.812Z,1022.87
2017-11-17T00:30:38.639Z,1022.84
2017-11-17T00:31:47.471Z,1022.86
2017-11-17T00:32:56.351Z,1022.86
2017-11-17T00:34:05.182Z,1022.94
2017-11-17T00:35:14.289Z,1022.88
2017-11-17T00:36:23.115Z,1022.85
2017-11-17T00:37:31.952Z,1022.85
2017-11-17T00:38:40.781Z,1022.83
2017-11-17T00:39:49.607Z,1022.86
2017-11-17T00:40:58.437Z,1022.91
2017-11-17T00:42:07.264Z,1022.92
2017-11-17T00:43:16.097Z,1022.9
2017-11-17T00:44:25.019Z,1022.94
2017-11-17T00:45:34.130Z,1022.93
2017-11-17T00:46:42.960Z,1022.91
2017-11-17T00:47:51.789Z,1022.9
2017-11-17T00:49:00.620Z,1022.94
2017-11-17T00:50:09.548Z,1022.95
2017-11-17T00:51:18.375Z,1022.98
2017-11-17T00:52:27.204Z,1022.97
2017-11-17T00:53:36.034Z,1022.99
2017-11-17T00:54:44.864Z,1023.02
2017-11-17T00:55:53.992Z,1023.03
2017-11-17T00:57:02.819Z,1023.03
2017-11-17T00:58:11.646Z,1023.01
2017-11-17T00:59:20.475Z,1023.08
2017-11-17T01:00:29.305Z,1023.07
2017-11-17T01:01:38.666Z,1023.13
2017-11-17T01:02:47.496Z,1023.18
2017-11-17T01:03:56.323Z,1023.19
2017-11-17T01:05:05.151Z,1023.16
2017-11-17T01:06:13.977Z,1023.16
2017-11-17T01:07:23.106Z,1023.18
2017-11-17T01:08:32.215Z,1023.21
2017-11-17T01:09:41.045Z,1023.19
2017-11-17T01:10:49.871Z,1023.17
2017-11-17T01:11:58.702Z,1023.16
2017-11-17T01:13:07.781Z,1023.16
2017-11-17T01:14:16.611Z,1023.16
2017-11-17T01:15:25.439Z,1023.13
2017-11-17T01:16:34.268Z,1023.2
2017-11-17T01:17:43.097Z,1023.17
2017-11-17T01:18:52.074Z,1023.19
2017-11-17T01:20:00.904Z,1023.25
2017-11-17T01:21:09.733Z,1023.26
2017-11-17T01:22:18.561Z,1023.25
2017-11-17T01:23:27.388Z,1023.27
2017-11-17T01:24:36.218Z,1023.3
2017-11-17T01:25:45.046Z,1023.3
2017-11-17T01:26:53.874Z,1023.35
2017-11-17T01:28:02.702Z,1023.35
2017-11-17T01:29:11.809Z,1023.34
2017-11-17T01:30:20.638Z,1023.34
2017-11-17T01:31:29.468Z,1023.39
2017-11-17T01:32:38.295Z,1023.44
2017-11-17T01:33:47.125Z,1023.42
2017-11-17T01:34:55.958Z,1023.41
2017-11-17T01:36:04.785Z,1023.42
2017-11-17T01:37:13.853Z,1023.44
2017-11-17T01:38:22.679Z,1023.51
2017-11-17T01:39:31.508Z,1023.54
2017-11-17T01:40:40.341Z,1023.51
2017-11-17T01:41:49.213Z,1023.5
2017-11-17T01:42:58.040Z,1023.56
2017-11-17T01:44:06.869Z,1023.58
2017-11-17T01:45:15.974Z,1023.63
2017-11-17T01:46:24.802Z,1023.59
2017-11-17T01:47:33.833Z,1023.65
2017-11-17T01:48:42.662Z,1023.66
2017-11-17T01:49:51.489Z,1023.65
2017-11-17T01:51:00.317Z,1023.66
2017-11-17T01:52:09.144Z,1023.67
2017-11-17T01:53:17.972Z,1023.7
2017-11-17T01:54:26.798Z,1023.71
2017-11-17T01:55:35.626Z,1023.73
2017-11-17T01:56:44.454Z,1023.73
2017-11-17T01:57:53.283Z,1023.75
2017-11-17T01:59:02.268Z,1023.78
2017-11-17T02:00:11.374Z,1023.77
2017-11-17T02:01:20.522Z,1023.77
2017-11-17T02:02:29.353Z,1023.79
2017-11-17T02:03:38.179Z,1023.77
2017-11-17T02:04:47.007Z,1023.73
2017-11-17T02:05:55.837Z,1023.8
2017-11-17T02:07:04.945Z,1023.79
2017-11-17T02:08:13.775Z,1023.81
2017-11-17T02:09:22.878Z,1023.82
2017-11-17T02:10:32.107Z,1023.83
2017-11-17T02:11:41.217Z,1023.84
2017-11-17T02:12:50.045Z,1023.88
2017-11-17T02:13:59.172Z,1023.87
2017-11-17T02:15:07.999Z,1023.89
2017-11-17T02:16:16.977Z,1023.86
2017-11-17T02:17:25.805Z,1023.91
2017-11-17T02:18:34.636Z,1023.95
2017-11-17T02:19:43.464Z,1023.93
2017-11-17T02:20:52.583Z,1023.9
2017-11-17T02:22:01.446Z,1023.9
2017-11-17T02:23:10.280Z,1023.91
2017-11-17T02:24:19.111Z,1023.93
2017-11-17T02:25:27.937Z,1023.95
2017-11-17T02:26:36.765Z,1023.92
2017-11-17T02:27:45.895Z,1023.94
2017-11-17T02:28:54.725Z,1023.95
2017-11-17T02:30:03.554Z,1023.97
2017-11-17T02:31:12.382Z,1023.97
2017-11-17T02:32:21.261Z,1023.98
2017-11-17T02:33:30.090Z,1023.97
2017-11-17T02:34:39.206Z,1023.97
2017-11-17T02:35:48.036Z,1023.96
2017-11-17T02:36:56.864Z,1023.98
2017-11-17T02:38:05.694Z,1024.01
2017-11-17T02:39:14.822Z,1023.97
2017-11-17T02:40:23.651Z,1023.96
2017-11-17T02:41:32.482Z,1023.97
2017-11-17T02:42:41.313Z,1023.98
2017-11-17T02:43:50.143Z,1024.03
2017-11-17T02:44:59.118Z,1024.03
2017-11-17T02:46:08.892Z,1024.03
2017-11-17T02:47:18.002Z,1024.07
2017-11-17T02:48:26.827Z,1024.06
2017-11-17T02:49:35.658Z,1024.09
2017-11-17T02:50:44.678Z,1024.09
2017-11-17T02:51:53.840Z,1024.08
2017-11-17T02:53:02.661Z,1024.09
2017-11-17T02:54:11.489Z,1024.12
2017-11-17T02:55:20.318Z,1024.13
2017-11-17T02:56:29.902Z,1024.1
2017-11-17T02:57:39.019Z,1024.14
2017-11-17T02:58:47.845Z,1024.09
2017-11-17T02:59:56.954Z,1024.14
2017-11-17T03:01:05.783Z,1024.2
2017-11-17T03:02:14.612Z,1024.2
2017-11-17T03:03:23.717Z,1024.17
2017-11-17T03:04:32.832Z,1024.15
2017-11-17T03:05:41.937Z,1024.19
2017-11-17T03:06:50.766Z,1024.2
2017-11-17T03:07:59.642Z,1024.22
2017-11-17T03:09:08.470Z,1024.24
2017-11-17T03:10:17.296Z,1024.24
2017-11-17T03:11:26.136Z,1024.24
2017-11-17T03:12:35.240Z,1024.22
2017-11-17T03:13:44.199Z,1024.21
2017-11-17T03:14:52.993Z,1024.24
2017-11-17T03:16:01.819Z,1024.25
2017-11-17T03:17:10.647Z,1024.25
2017-11-17T03:18:19.754Z,1024.27
2017-11-17T03:19:28.984Z,1024.3
2017-11-17T03:20:37.810Z,1024.32
2017-11-17T03:21:46.637Z,1024.25
2017-11-17T03:22:55.465Z,1024.35
2017-11-17T03:24:04.574Z,1024.3
2017-11-17T03:25:13.449Z,1024.33
2017-11-17T03:26:22.282Z,1024.35
2017-11-17T03:27:31.102Z,1024.36
2017-11-17T03:28:39.930Z,1024.35
2017-11-17T03:29:49.031Z,1024.35
2017-11-17T03:30:57.964Z,1024.37
2017-11-17T03:32:06.793Z,1024.42
2017-11-17T03:33:15.618Z,1024.38
2017-11-17T03:34:24.444Z,1024.45
2017-11-17T03:35:33.274Z,1024.45
2017-11-17T03:36:42.256Z,1024.49
2017-11-17T03:37:51.078Z,1024.46
2017-11-17T03:38:59.909Z,1024.47
2017-11-17T03:40:08.736Z,1024.47
2017-11-17T03:41:17.564Z,1024.47
2017-11-17T03:42:26.693Z,1024.45
2017-11-17T03:43:35.519Z,1024.44
2017-11-17T03:44:44.350Z,1024.45
2017-11-17T03:45:53.172Z,1024.48
2017-11-17T03:47:02.006Z,1024.48
2017-11-17T03:48:11.130Z,1024.5
2017-11-17T03:49:19.957Z,1024.53
2017-11-17T03:50:28.783Z,1024.49
2017-11-17T03:51:37.611Z,1024.55
2017-11-17T03:52:46.443Z,1024.57
2017-11-17T03:53:55.270Z,1024.57
2017-11-17T03:55:04.097Z,1024.6
2017-11-17T03:56:12.924Z,1024.63
2017-11-17T03:57:22.034Z,1024.63
2017-11-17T03:58:30.861Z,1024.66
2017-11-17T03:59:39.990Z,1024.66
2017-11-17T04:00:49.092Z,1024.68
2017-11-17T04:01:57.919Z,1024.66
2017-11-17T04:03:06.747Z,1024.7
2017-11-17T04:04:15.574Z,1024.69
2017-11-17T04:05:24.503Z,1024.71
2017-11-17T04:06:33.603Z,1024.72
2017-11-17T04:07:42.432Z,1024.68
2017-11-17T04:08:51.260Z,1024.7
2017-11-17T04:10:00.087Z,1024.7
2017-11-17T04:11:09.013Z,1024.7
2017-11-17T04:12:17.842Z,1024.71
2017-11-17T04:13:26.671Z,1024.73
2017-11-17T04:14:35.496Z,1024.75
2017-11-17T04:15:44.323Z,1024.77
2017-11-17T04:16:53.148Z,1024.74
2017-11-17T04:18:01.973Z,1024.76
2017-11-17T04:19:10.798Z,1024.77
2017-11-17T04:20:19.625Z,1024.77
2017-11-17T04:21:28.450Z,1024.76
2017-11-17T04:22:37.578Z,1024.78
2017-11-17T04:23:46.407Z,1024.82
2017-11-17T04:24:55.231Z,1024.81
2017-11-17T04:26:04.062Z,1024.81
2017-11-17T04:27:12.885Z,1024.77
2017-11-17T04:28:22.143Z,1024.86
2017-11-17T04:29:30.970Z,1024.83
2017-11-17T04:30:39.797Z,1024.84
2017-11-17T04:31:48.623Z,1024.86
2017-11-17T04:32:57.451Z,1024.85
2017-11-17T04:34:06.280Z,1024.83
2017-11-17T04:35:15.106Z,1024.85
2017-11-17T04:36:23.933Z,1024.86
2017-11-17T04:37:33.039Z,1024.85
2017-11-17T04:38:42.142Z,1024.89
2017-11-17T04:39:50.970Z,1024.86
2017-11-17T04:40:59.797Z,1024.9
2017-11-17T04:42:08.624Z,1024.85
2017-11-17T04:43:17.450Z,1024.83
2017-11-17T04:44:26.282Z,1024.84
2017-11-17T04:45:35.112Z,1024.85
2017-11-17T04:46:43.936Z,1024.84
2017-11-17T04:47:52.763Z,1024.88
2017-11-17T04:49:01.588Z,1024.91
2017-11-17T04:50:10.413Z,1024.91
2017-11-17T04:51:19.489Z,1024.93
2017-11-17T04:52:28.314Z,1024.92
2017-11-17T04:53:37.143Z,1024.92
2017-11-17T04:54:45.970Z,1024.93
2017-11-17T04:55:54.797Z,1024.89
2017-11-17T04:57:03.625Z,1024.91
2017-11-17T04:58:12.484Z,1024.91
2017-11-17T04:59:21.559Z,1024.91
2017-11-17T05:00:30.385Z,1024.96
2017-11-17T05:01:39.212Z,1024.92
2017-11-17T05:02:48.189Z,1024.96
2017-11-17T05:03:57.018Z,1024.93
2017-11-17T05:05:05.844Z,1024.96
2017-11-17T05:06:14.672Z,1024.98
2017-11-17T05:07:23.496Z,1024.95
2017-11-17T05:08:32.374Z,1024.96
2017-11-17T05:09:41.202Z,1024.98
2017-11-17T05:10:50.028Z,1025
2017-11-17T05:11:58.889Z,1025
2017-11-17T05:13:07.681Z,1025.03
2017-11-17T05:14:16.508Z,1025.05
2017-11-17T05:15:25.336Z,1025.1
2017-11-17T05:16:34.167Z,1025.09
2017-11-17T05:17:42.992Z,1025.09
2017-11-17T05:18:51.819Z,1025.1
2017-11-17T05:20:00.645Z,1025.11
2017-11-17T05:21:09.472Z,1025.17
2017-11-17T05:22:18.301Z,1025.12
2017-11-17T05:23:27.122Z,1025.17
2017-11-17T05:24:35.949Z,1025.15
2017-11-17T05:25:44.876Z,1025.15
2017-11-17T05:26:53.706Z,1025.15
2017-11-17T05:28:02.536Z,1025.2
2017-11-17T05:29:11.359Z,1025.2
2017-11-17T05:30:20.188Z,1025.2
2017-11-17T05:31:29.014Z,1025.2
2017-11-17T05:32:37.839Z,1025.16
2017-11-17T05:33:46.666Z,1025.15
2017-11-17T05:34:55.778Z,1025.22
2017-11-17T05:36:04.601Z,1025.19
2017-11-17T05:37:13.628Z,1025.24
2017-11-17T05:38:22.455Z,1025.25
2017-11-17T05:39:31.281Z,1025.25
2017-11-17T05:40:40.108Z,1025.22
2017-11-17T05:41:48.934Z,1025.23
2017-11-17T05:42:57.858Z,1025.26
2017-11-17T05:44:06.689Z,1025.19
2017-11-17T05:45:16.072Z,1025.25
2017-11-17T05:46:25.188Z,1025.29
2017-11-17T05:47:34.012Z,1025.25
2017-11-17T05:48:43.139Z,1025.27
2017-11-17T05:49:51.969Z,1025.25
2017-11-17T05:51:00.791Z,1025.27
2017-11-17T05:52:09.622Z,1025.31
2017-11-17T05:53:18.731Z,1025.26
2017-11-17T05:54:27.961Z,1025.34
2017-11-17T05:55:36.787Z,1025.3
2017-11-17T05:56:45.898Z,1025.33
2017-11-17T05:57:54.724Z,1025.37
2017-11-17T05:59:03.549Z,1025.35
2017-11-17T06:00:12.524Z,1025.38
2017-11-17T06:01:21.678Z,1025.31
2017-11-17T06:02:30.507Z,1025.37
2017-11-17T06:03:39.333Z,1025.39
2017-11-17T06:04:48.450Z,1025.39
2017-11-17T06:05:57.378Z,1025.41
2017-11-17T06:07:06.204Z,1025.37
2017-11-17T06:08:15.034Z,1025.39
2017-11-17T06:09:23.863Z,1025.41
2017-11-17T06:10:32.693Z,1025.43
2017-11-17T06:11:41.621Z,1025.43
2017-11-17T06:12:50.449Z,1025.4
2017-11-17T06:13:59.276Z,1025.45
2017-11-17T06:15:08.105Z,1025.46
2017-11-17T06:16:16.933Z,1025.44
2017-11-17T06:17:26.039Z,1025.45
2017-11-17T06:18:34.867Z,1025.45
2017-11-17T06:19:43.692Z,1025.46
2017-11-17T06:20:52.796Z,1025.44
2017-11-17T06:22:01.623Z,1025.44
2017-11-17T06:23:10.550Z,1025.48
2017-11-17T06:24:19.375Z,1025.51
2017-11-17T06:25:28.480Z,1025.49
2017-11-17T06:26:37.306Z,1025.52
2017-11-17T06:27:46.134Z,1025.53
2017-11-17T06:28:55.161Z,1025.54
2017-11-17T06:30:05.388Z,1025.56
2017-11-17T06:31:14.214Z,1025.59
2017-11-17T06:32:23.040Z,1025.57
2017-11-17T06:33:32.148Z,1025.61
2017-11-17T06:34:40.977Z,1025.58
2017-11-17T06:35:50.095Z,1025.58
2017-11-17T06:36:59.216Z,1025.59
2017-11-17T06:38:08.039Z,1025.63
2017-11-17T06:39:16.865Z,1025.65
2017-11-17T06:40:25.689Z,1025.63
2017-11-17T06:41:34.520Z,1025.59
2017-11-17T06:42:43.350Z,1025.65
2017-11-17T06:43:52.461Z,1025.65
2017-11-17T06:45:01.289Z,1025.69
2017-11-17T06:46:10.166Z,1025.72
2017-11-17T06:47:19.275Z,1025.72
2017-11-17T06:48:28.102Z,1025.73
2017-11-17T06:49:36.962Z,1025.75
2017-11-17T06:50:45.756Z,1025.73
2017-11-17T06:51:54.685Z,1025.77
2017-11-17T06:53:03.513Z,1025.75
2017-11-17T06:54:12.615Z,1025.73
2017-11-17T06:55:22.050Z,1025.77
2017-11-17T06:56:30.878Z,1025.8
2017-11-17T06:57:39.804Z,1025.83
2017-11-17T06:58:48.630Z,1025.87
2017-11-17T06:59:57.459Z,1025.88
2017-11-17T07:01:06.287Z,1025.87
2017-11-17T07:02:15.113Z,1025.89
2017-11-17T07:03:24.091Z,1025.9
2017-11-17T07:04:32.926Z,1025.94
2017-11-17T07:05:42.036Z,1025.92
2017-11-17T07:06:50.863Z,1025.98
2017-11-17T07:07:59.690Z,1025.96
2017-11-17T07:09:08.565Z,1025.96
2017-11-17T07:10:17.394Z,1025.97
2017-11-17T07:11:26.221Z,1025.97
2017-11-17T07:12:35.453Z,1026.02
2017-11-17T07:13:44.277Z,1026.05
2017-11-17T07:14:53.706Z,1026.06
2017-11-17T07:16:02.523Z,1026.01
2017-11-17T07:17:11.351Z,1026.06
2017-11-17T07:18:20.179Z,1026.06
2017-11-17T07:19:29.005Z,1026.1
2017-11-17T07:20:37.831Z,1026.13
2017-11-17T07:21:46.655Z,1026.15
2017-11-17T07:22:55.486Z,1026.14
2017-11-17T07:24:04.321Z,1026.18
2017-11-17T07:25:13.429Z,1026.13
2017-11-17T07:26:22.257Z,1026.15
2017-11-17T07:27:31.084Z,1026.18
2017-11-17T07:28:39.911Z,1026.19
2017-11-17T07:29:48.742Z,1026.18
2017-11-17T07:30:57.570Z,1026.21
2017-11-17T07:32:06.695Z,1026.2
2017-11-17T07:33:15.520Z,1026.22
2017-11-17T07:34:24.350Z,1026.27
2017-11-17T07:35:33.176Z,1026.27
2017-11-17T07:36:42.001Z,1026.27
2017-11-17T07:37:50.830Z,1026.28
2017-11-17T07:38:59.658Z,1026.28
2017-11-17T07:40:08.484Z,1026.28
2017-11-17T07:41:17.316Z,1026.29
2017-11-17T07:42:26.137Z,1026.33
2017-11-17T07:43:35.063Z,1026.33
2017-11-17T07:44:43.895Z,1026.36
2017-11-17T07:45:52.720Z,1026.34
2017-11-17T07:47:01.550Z,1026.34
2017-11-17T07:48:10.375Z,1026.36
2017-11-17T07:49:19.301Z,1026.35
2017-11-17T07:50:28.125Z,1026.37
2017-11-17T07:51:36.952Z,1026.42
2017-11-17T07:52:45.782Z,1026.41
2017-11-17T07:53:54.604Z,1026.41
2017-11-17T07:55:03.483Z,1026.43
2017-11-17T07:56:12.309Z,1026.43
2017-11-17T07:57:21.135Z,1026.4
2017-11-17T07:58:29.963Z,1026.41
2017-11-17T07:59:38.789Z,1026.4
2017-11-17T08:00:47.716Z,1026.44
2017-11-17T08:01:56.548Z,1026.41
2017-11-17T08:03:05.386Z,1026.45
2017-11-17T08:04:14.208Z,1026.45
2017-11-17T08:05:23.313Z,1026.48
2017-11-17T08:06:32.188Z,1026.51
2017-11-17T08:07:41.015Z,1026.52
2017-11-17T08:08:49.842Z,1026.48
2017-11-17T08:09:58.671Z,1026.51
2017-11-17T08:11:07.498Z,1026.49
2017-11-17T08:12:16.655Z,1026.48
2017-11-17T08:13:25.482Z,1026.48
2017-11-17T08:14:34.312Z,1026.49
2017-11-17T08:15:43.144Z,1026.46
2017-11-17T08:16:51.966Z,1026.53
2017-11-17T08:18:00.794Z,1026.51
2017-11-17T08:19:09.618Z,1026.49
2017-11-17T08:20:18.449Z,1026.48
2017-11-17T08:21:27.553Z,1026.57
2017-11-17T08:22:36.380Z,1026.57
2017-11-17T08:23:45.307Z,1026.54
2017-11-17T08:24:54.133Z,1026.56
2017-11-17T08:26:02.960Z,1026.53
2017-11-17T08:27:11.785Z,1026.55
2017-11-17T08:28:20.615Z,1026.6
2017-11-17T08:29:29.591Z,1026.58
2017-11-17T08:30:38.417Z,1026.58
2017-11-17T08:31:47.245Z,1026.58
2017-11-17T08:32:56.072Z,1026.54
2017-11-17T08:34:04.904Z,1026.56
2017-11-17T08:35:14.031Z,1026.58
2017-11-17T08:36:22.863Z,1026.6
2017-11-17T08:37:31.687Z,1026.63
2017-11-17T08:38:40.513Z,1026.6
2017-11-17T08:39:49.340Z,1026.62
2017-11-17T08:40:58.271Z,1026.57
2017-11-17T08:42:07.659Z,1026.59
2017-11-17T08:43:16.486Z,1026.61
2017-11-17T08:44:25.310Z,1026.59
2017-11-17T08:45:34.141Z,1026.6
2017-11-17T08:46:43.346Z,1026.6
2017-11-17T08:47:52.173Z,1026.62
2017-11-17T08:49:01.000Z,1026.62
2017-11-17T08:50:09.826Z,1026.6
2017-11-17T08:51:18.651Z,1026.62
2017-11-17T08:52:27.727Z,1026.59
2017-11-17T08:53:36.555Z,1026.6
2017-11-17T08:54:45.385Z,1026.58
2017-11-17T08:55:54.496Z,1026.63
2017-11-17T08:57:03.329Z,1026.57
2017-11-17T08:58:12.539Z,1026.61
2017-11-17T08:59:21.365Z,1026.57
2017-11-17T09:00:30.473Z,1026.57
2017-11-17T09:01:39.300Z,1026.58
2017-11-17T09:02:48.130Z,1026.57
2017-11-17T09:03:56.956Z,1026.54
2017-11-17T09:05:06.071Z,1026.55
2017-11-17T09:06:14.900Z,1026.56
2017-11-17T09:07:23.728Z,1026.55
2017-11-17T09:08:32.556Z,1026.54
2017-11-17T09:09:41.384Z,1026.55
2017-11-17T09:10:50.210Z,1026.56
2017-11-17T09:11:59.039Z,1026.56
2017-11-17T09:13:08.145Z,1026.54
2017-11-17T09:14:16.973Z,1026.54
2017-11-17T09:15:26.128Z,1026.56
2017-11-17T09:16:34.958Z,1026.56
2017-11-17T09:17:43.784Z,1026.55
2017-11-17T09:18:52.610Z,1026.55
2017-11-17T09:20:01.723Z,1026.62
2017-11-17T09:21:10.751Z,1026.56
2017-11-17T09:22:19.580Z,1026.57
2017-11-17T09:23:28.409Z,1026.56
2017-11-17T09:24:37.235Z,1026.59
2017-11-17T09:25:46.064Z,1026.61
2017-11-17T09:26:55.250Z,1026.66
2017-11-17T09:28:04.084Z,1026.62
2017-11-17T09:29:12.910Z,1026.64
2017-11-17T09:30:21.737Z,1026.68
2017-11-17T09:31:30.563Z,1026.7
2017-11-17T09:32:39.391Z,1026.71
2017-11-17T09:33:48.217Z,1026.71
2017-11-17T09:34:57.046Z,1026.72
2017-11-17T09:36:05.875Z,1026.71
2017-11-17T09:37:14.709Z,1026.71
2017-11-17T09:38:23.682Z,1026.73
2017-11-17T09:39:32.516Z,1026.8
2017-11-17T09:40:41.337Z,1026.77
2017-11-17T09:41:50.164Z,1026.76
2017-11-17T09:42:58.993Z,1026.76
2017-11-17T09:44:07.821Z,1026.79
2017-11-17T09:45:16.655Z,1026.79
2017-11-17T09:46:25.474Z,1026.8
2017-11-17T09:47:34.310Z,1026.79
2017-11-17T09:48:43.701Z,1026.79
2017-11-17T09:49:52.683Z,1026.73
2017-11-17T09:51:01.513Z,1026.76
2017-11-17T09:52:10.341Z,1026.75
2017-11-17T09:53:19.176Z,1026.75
2017-11-17T09:54:27.996Z,1026.75
2017-11-17T09:55:37.633Z,1026.77
2017-11-17T09:56:46.463Z,1026.77
2017-11-17T09:57:55.293Z,1026.79
2017-11-17T09:59:04.117Z,1026.77
2017-11-17T10:00:12.941Z,1026.82
2017-11-17T10:01:22.069Z,1026.81
2017-11-17T10:02:30.899Z,1026.77
2017-11-17T10:03:40.027Z,1026.78
2017-11-17T10:04:49.400Z,1026.78
2017-11-17T10:05:58.499Z,1026.81
2017-11-17T10:07:07.544Z,1026.83
2017-11-17T10:08:16.707Z,1026.82
2017-11-17T10:09:26.081Z,1026.84
2017-11-17T10:10:35.113Z,1026.81
2017-11-17T10:11:44.195Z,1026.87
2017-11-17T10:12:53.033Z,1026.87
2017-11-17T10:14:02.213Z,1026.87
2017-11-17T10:15:11.060Z,1026.85
2017-11-17T10:16:19.914Z,1026.85
2017-11-17T10:17:28.735Z,1026.79
2017-11-17T10:18:37.579Z,1026.79
2017-11-17T10:19:47.033Z,1026.76
2017-11-17T10:20:56.142Z,1026.76
2017-11-17T10:22:05.575Z,1026.81
2017-11-17T10:23:14.687Z,1026.8
2017-11-17T10:24:23.625Z,1026.8
2017-11-17T10:25:32.497Z,1026.76
2017-11-17T10:26:41.598Z,1026.77
2017-11-17T10:27:50.486Z,1026.71
2017-11-17T10:28:59.310Z,1026.69
2017-11-17T10:30:08.140Z,1026.69
2017-11-17T10:31:16.970Z,1026.68
2017-11-17T10:32:25.832Z,1026.71
2017-11-17T10:33:34.713Z,1026.72
2017-11-17T10:34:43.573Z,1026.74
2017-11-17T10:35:52.767Z,1026.69
2017-11-17T10:37:02.014Z,1026.64
2017-11-17T10:38:11.335Z,1026.7
2017-11-17T10:39:20.473Z,1026.69
2017-11-17T10:40:29.301Z,1026.67
2017-11-17T10:41:38.231Z,1026.66
2017-11-17T10:42:47.596Z,1026.68
2017-11-17T10:43:56.495Z,1026.69
2017-11-17T10:45:05.936Z,1026.72
2017-11-17T10:46:15.259Z,1026.64
2017-11-17T10:47:25.163Z,1026.65
2017-11-17T10:48:34.249Z,1026.66
2017-11-17T10:49:43.407Z,1026.71
2017-11-17T10:50:52.445Z,1026.66
2017-11-17T10:52:01.342Z,1026.63
2017-11-17T10:53:10.464Z,1026.63
2017-11-17T10:54:19.835Z,1026.63
2017-11-17T10:55:29.370Z,1026.64
2017-11-17T10:56:38.508Z,1026.63
2017-11-17T10:57:47.566Z,1026.62
2017-11-17T10:58:56.402Z,1026.65
2017-11-17T11:00:05.227Z,1026.62
2017-11-17T11:01:14.056Z,1026.57
2017-11-17T11:02:22.885Z,1026.59
2017-11-17T11:03:31.716Z,1026.58
2017-11-17T11:04:40.549Z,1026.55
2017-11-17T11:05:49.658Z,1026.55
2017-11-17T11:06:58.485Z,1026.6
2017-11-17T11:08:07.318Z,1026.6
2017-11-17T11:09:16.145Z,1026.58
2017-11-17T11:10:25.373Z,1026.63
2017-11-17T11:11:34.202Z,1026.56
2017-11-17T11:12:43.030Z,1026.56
2017-11-17T11:13:52.115Z,1026.54
2017-11-17T11:15:01.226Z,1026.62
2017-11-17T11:16:10.345Z,1026.59
2017-11-17T11:17:19.175Z,1026.65
2017-11-17T11:18:28.007Z,1026.59
2017-11-17T11:19:36.836Z,1026.58
2017-11-17T11:20:45.665Z,1026.59
2017-11-17T11:21:54.544Z,1026.62
2017-11-17T11:23:03.669Z,1026.58
2017-11-17T11:24:12.499Z,1026.58
2017-11-17T11:25:21.330Z,1026.55
2017-11-17T11:26:30.165Z,1026.52
2017-11-17T11:27:39.142Z,1026.5
2017-11-17T11:28:47.972Z,1026.51
2017-11-17T11:29:57.085Z,1026.52
2017-11-17T11:31:05.908Z,1026.53
2017-11-17T11:32:14.738Z,1026.44
2017-11-17T11:33:23.566Z,1026.49
2017-11-17T11:34:32.396Z,1026.42
2017-11-17T11:35:41.227Z,1026.44
2017-11-17T11:36:50.057Z,1026.45
2017-11-17T11:37:58.894Z,1026.45
2017-11-17T11:39:08.022Z,1026.48
2017-11-17T11:40:17.158Z,1026.42
2017-11-17T11:41:25.996Z,1026.44
2017-11-17T11:42:34.817Z,1026.45
2017-11-17T11:43:43.934Z,1026.41
2017-11-17T11:44:52.913Z,1026.39
2017-11-17T11:46:01.744Z,1026.41
2017-11-17T11:47:10.572Z,1026.37
2017-11-17T11:48:19.685Z,1026.39
2017-11-17T11:49:28.792Z,1026.42
2017-11-17T11:50:37.628Z,1026.41
2017-11-17T11:51:46.454Z,1026.39
2017-11-17T11:52:55.286Z,1026.44
2017-11-17T11:54:04.116Z,1026.39
2017-11-17T11:55:12.943Z,1026.39
2017-11-17T11:56:22.075Z,1026.37
2017-11-17T11:57:30.905Z,1026.43
2017-11-17T11:58:39.736Z,1026.45
2017-11-17T11:59:48.566Z,1026.43
2017-11-17T12:00:57.396Z,1026.46
2017-11-17T12:02:06.336Z,1026.37
2017-11-17T12:03:15.158Z,1026.34
2017-11-17T12:04:23.997Z,1026.34
2017-11-17T12:05:32.816Z,1026.33
2017-11-17T12:06:41.650Z,1026.33
2017-11-17T12:07:50.534Z,1026.29
2017-11-17T12:08:59.360Z,1026.33
2017-11-17T12:10:08.194Z,1026.32
2017-11-17T12:11:17.022Z,1026.26
2017-11-17T12:12:25.854Z,1026.31
2017-11-17T12:13:34.690Z,1026.27
2017-11-17T12:14:43.517Z,1026.29
2017-11-17T12:15:52.634Z,1026.32
2017-11-17T12:17:01.465Z,1026.28
2017-11-17T12:18:10.295Z,1026.29
2017-11-17T12:19:19.151Z,1026.28
2017-11-17T12:20:27.961Z,1026.29
2017-11-17T12:21:36.790Z,1026.29
2017-11-17T12:22:45.620Z,1026.28
2017-11-17T12:23:54.449Z,1026.3
2017-11-17T12:25:03.284Z,1026.26
2017-11-17T12:26:12.105Z,1026.25
2017-11-17T12:27:20.936Z,1026.24
2017-11-17T12:28:29.767Z,1026.25
2017-11-17T12:29:38.598Z,1026.22
2017-11-17T12:30:47.907Z,1026.22
2017-11-17T12:31:57.019Z,1026.2
2017-11-17T12:33:05.853Z,1026.23
2017-11-17T12:34:14.685Z,1026.21
2017-11-17T12:35:23.515Z,1026.22
2017-11-17T12:36:32.547Z,1026.15
2017-11-17T12:37:41.377Z,1026.18
2017-11-17T12:38:50.209Z,1026.16
2017-11-17T12:39:59.040Z,1026.1
2017-11-17T12:41:07.869Z,1026.11
2017-11-17T12:42:17.001Z,1026.11
2017-11-17T12:43:25.834Z,1026.09
2017-11-17T12:44:34.666Z,1026.08
2017-11-17T12:45:43.497Z,1026.1
2017-11-17T12:46:52.326Z,1026.07
2017-11-17T12:48:01.307Z,1026.1
2017-11-17T12:49:10.136Z,1026.03
2017-11-17T12:50:18.970Z,1026.04
2017-11-17T12:51:27.803Z,1026.07
2017-11-17T12:52:36.639Z,1026.06
2017-11-17T12:53:45.566Z,1026.1
2017-11-17T12:54:54.402Z,1026.07
2017-11-17T12:56:03.229Z,1026.12
2017-11-17T12:57:12.058Z,1026.08
2017-11-17T12:58:20.889Z,1026.07
2017-11-17T12:59:29.823Z,1026.07
2017-11-17T13:00:38.654Z,1026.09
2017-11-17T13:01:47.772Z,1026.09
2017-11-17T13:02:56.598Z,1026.09
2017-11-17T13:04:05.428Z,1026.04
2017-11-17T13:05:14.312Z,1026.01
2017-11-17T13:06:23.165Z,1026.02
2017-11-17T13:07:31.979Z,1026.02
2017-11-17T13:08:40.809Z,1026
2017-11-17T13:09:49.641Z,1025.98
2017-11-17T13:10:58.581Z,1026.01
2017-11-17T13:12:07.413Z,1026.02
2017-11-17T13:13:16.244Z,1026
2017-11-17T13:14:25.078Z,1026.01
2017-11-17T13:15:33.912Z,1026.01
2017-11-17T13:16:42.798Z,1025.99
2017-11-17T13:17:51.627Z,1025.97
2017-11-17T13:19:00.455Z,1025.96
2017-11-17T13:20:09.286Z,1025.93
2017-11-17T13:21:18.117Z,1025.91
2017-11-17T13:22:27.000Z,1025.89
2017-11-17T13:23:35.833Z,1025.91
2017-11-17T13:24:44.665Z,1025.98
2017-11-17T13:25:53.505Z,1025.96
2017-11-17T13:27:02.329Z,1025.94
2017-11-17T13:28:11.493Z,1025.91
2017-11-17T13:29:20.344Z,1025.84
2017-11-17T13:30:29.159Z,1025.81
2017-11-17T13:31:37.992Z,1025.82
2017-11-17T13:32:46.825Z,1025.84
2017-11-17T13:33:56.097Z,1025.8
2017-11-17T13:35:05.205Z,1025.8
2017-11-17T13:36:14.038Z,1025.76
2017-11-17T13:37:22.901Z,1025.78
2017-11-17T13:38:31.703Z,1025.76
2017-11-17T13:39:40.915Z,1025.76
2017-11-17T13:40:49.755Z,1025.78
2017-11-17T13:41:58.577Z,1025.77
2017-11-17T13:43:07.423Z,1025.78
2017-11-17T13:44:16.254Z,1025.74
2017-11-17T13:45:25.138Z,1025.71
2017-11-17T13:46:33.970Z,1025.75
2017-11-17T13:47:42.803Z,1025.75
2017-11-17T13:48:51.639Z,1025.76
2017-11-17T13:50:00.472Z,1025.71
2017-11-17T13:51:09.307Z,1025.72
2017-11-17T13:52:18.142Z,1025.7
2017-11-17T13:53:26.975Z,1025.71
2017-11-17T13:54:35.809Z,1025.67
2017-11-17T13:55:44.641Z,1025.67
2017-11-17T13:56:53.875Z,1025.65